This is the latest recevied weather packets stored in our database for station/object 9M4RBN-3. If no packets are shown the sender has not sent any weather packets the latest 10 day(s).
| Time | Temp. | Humidity | Pressure | Rain* | Wind** | Luminosity | Snow |
|---|---|---|---|---|---|---|---|
| 1777823495 | 24.44° C | 45% | 1015.7 hPa | - | - | - | - |
| 1777822595 | 24.44° C | 45% | 1015.9 hPa | - | - | - | - |
| 1777821695 | 24.44° C | 44% | 1015.9 hPa | - | - | - | - |
| 1777820795 | 25° C | 45% | 1015.8 hPa | - | - | - | - |
| 1777819895 | 25° C | 45% | 1015.7 hPa | - | - | - | - |
| 1777818996 | 25° C | 44% | 1015.6 hPa | - | - | - | - |
| 1777818096 | 25° C | 44% | 1015.3 hPa | - | - | - | - |
| 1777817196 | 25° C | 43% | 1015.1 hPa | - | - | - | - |
| 1777816296 | 25.56° C | 44% | 1015 hPa | - | - | - | - |
| 1777815396 | 25.56° C | 44% | 1014.8 hPa | - | - | - | - |
| 1777814496 | 25.56° C | 45% | 1014.8 hPa | - | - | - | - |
| 1777813596 | 25.56° C | 47% | 1014.6 hPa | - | - | - | - |
| 1777812696 | 25.56° C | 50% | 1014.6 hPa | - | - | - | - |
| 1777811796 | 25.56° C | 51% | 1014.4 hPa | - | - | - | - |
| 1777810896 | 25.56° C | 43% | 1014.4 hPa | - | - | - | - |
| 1777809996 | 26.11° C | 39% | 1014.2 hPa | - | - | - | - |
| 1777809096 | 26.67° C | 49% | 1014 hPa | - | - | - | - |
| 1777808196 | 27.22° C | 69% | 1014 hPa | - | - | - | - |
| 1777807296 | 26.11° C | 57% | 1014.1 hPa | - | - | - | - |
| 1777806396 | 26.11° C | 38% | 1014 hPa | - | - | - | - |
| 1777805496 | 26.67° C | 45% | 1013.7 hPa | - | - | - | - |
| 1777804596 | 26.67° C | 67% | 1013.2 hPa | - | - | - | - |
| 1777803695 | 26.11° C | 50% | 1012.9 hPa | - | - | - | - |
| 1777802795 | 25.56° C | 36% | 1012.7 hPa | - | - | - | - |
| 1777801895 | 26.11° C | 36% | 1012.5 hPa | - | - | - | - |
* Rain since midnight (hover to see other rain measurements)
** Current wind speed in m/s (hover to see current wind gust speed)